Time;durP1;ratioP1;P1;durP2;ratioP2;P2;SDS_P1;SDS_P2;PMS_P1;PMS_P2;Temp;Humidity;BMP_temperature;BMP_pressure;BME280_temperature;BME280_humidity;BME280_pressure;Samples;Min_cycle;Max_cycle;Signal;HPM_P1;HPM_P2
2022/09/07 00:00:32;;;;;;;14.77;8.30;;;461.00;2380.80;;;;;;5052901;28;20029;-83
2022/09/07 00:02:58;;;;;;;11.70;7.90;;;461.00;2380.80;;;;;;5049137;28;20112;-85
2022/09/07 00:05:24;;;;;;;14.35;7.60;;;461.00;2380.80;;;;;;5045566;28;20104;-83
2022/09/07 00:07:50;;;;;;;11.32;7.43;;;460.90;2380.80;;;;;;5040036;28;20113;-84
2022/09/07 00:10:16;;;;;;;9.68;6.82;;;436.00;2355.20;;;;;;5047346;28;20033;-83
2022/09/07 00:12:43;;;;;;;13.00;7.13;;;436.00;2355.20;;;;;;5037882;28;20079;-84
2022/09/07 00:15:11;;;;;;;11.60;7.75;;;436.10;2355.20;;;;;;5042830;28;20025;-83
2022/09/07 00:17:37;;;;;;;12.15;8.70;;;460.80;2380.80;;;;;;5046126;28;20054;-83
2022/09/07 00:20:06;;;;;;;10.38;6.80;;;436.10;2355.20;;;;;;5045307;28;20036;-83
2022/09/07 00:22:32;;;;;;;10.52;7.13;;;435.90;2355.20;;;;;;5079482;28;20388;-84
2022/09/07 00:24:58;;;;;;;12.75;8.38;;;435.90;2355.20;;;;;;5043410;28;20022;-83
2022/09/07 00:27:23;;;;;;;14.38;8.07;;;435.90;2355.20;;;;;;5039123;28;20025;-83
2022/09/07 00:29:49;;;;;;;11.77;7.65;;;435.90;2355.20;;;;;;5045091;28;20037;-84
2022/09/07 00:32:15;;;;;;;16.08;7.93;;;436.00;2355.20;;;;;;5045903;28;20021;-83
2022/09/07 00:34:41;;;;;;;12.68;8.35;;;435.60;2355.20;;;;;;5043452;28;20064;-83
2022/09/07 00:37:07;;;;;;;11.20;7.05;;;435.80;2355.20;;;;;;5044216;28;20080;-83
2022/09/07 00:39:33;;;;;;;13.15;7.22;;;435.80;2355.20;;;;;;5041178;28;20436;-82
2022/09/07 00:42:00;;;;;;;13.23;8.10;;;435.90;2355.20;;;;;;5044284;28;20479;-83
2022/09/07 00:44:41;;;;;;;14.52;8.32;;;435.90;2355.20;;;;;;5045013;28;20021;-84
2022/09/07 00:47:12;;;;;;;11.88;8.20;;;435.90;2355.20;;;;;;5043163;28;20079;-82
2022/09/07 00:49:39;;;;;;;12.75;8.02;;;435.80;2355.20;;;;;;5051286;28;20029;-83
2022/09/07 00:52:08;;;;;;;16.55;8.23;;;435.70;2355.20;;;;;;5044274;28;20032;-84
2022/09/07 00:54:40;;;;;;;12.50;7.57;;;435.60;2355.20;;;;;;5038473;28;20030;-83
2022/09/07 00:57:06;;;;;;;13.02;8.02;;;435.40;2355.20;;;;;;5040632;28;20388;-83
2022/09/07 00:59:36;;;;;;;14.95;7.93;;;435.40;2355.20;;;;;;5042780;28;20036;-82
2022/09/07 01:02:02;;;;;;;9.65;7.32;;;435.50;2355.20;;;;;;5056237;28;20025;-84
2022/09/07 01:04:29;;;;;;;12.63;7.25;;;435.60;2355.20;;;;;;5039402;28;20371;-82
2022/09/07 01:06:56;;;;;;;12.45;7.32;;;435.60;2355.20;;;;;;5048238;28;20021;-83
2022/09/07 01:09:24;;;;;;;10.95;6.93;;;435.70;2355.20;;;;;;5047428;28;20028;-83
2022/09/07 01:11:52;;;;;;;14.32;7.32;;;435.50;2355.20;;;;;;5042251;28;20386;-83
2022/09/07 01:14:22;;;;;;;11.05;8.10;;;435.60;2355.20;;;;;;5041793;28;20049;-83
2022/09/07 01:17:16;;;;;;;13.75;8.20;;;435.60;2355.20;;;;;;5044902;28;20029;-83
2022/09/07 01:20:19;;;;;;;11.32;7.35;;;435.60;2355.20;;;;;;5044944;28;20037;-83
2022/09/07 01:22:54;;;;;;;;;;;435.60;2355.20;;;;;;5041423;28;20063;-82
2022/09/07 01:25:47;;;;;;;10.30;7.35;;;435.60;2355.20;;;;;;5046296;28;19999;-83
2022/09/07 01:28:16;;;;;;;12.43;8.35;;;435.50;2355.20;;;;;;5046440;28;20459;-82
2022/09/07 01:30:55;;;;;;;12.45;7.90;;;435.50;2355.20;;;;;;5044572;28;20039;-82
2022/09/07 01:33:40;;;;;;;13.55;8.13;;;435.50;2355.20;;;;;;5044886;28;20071;-83
2022/09/07 01:36:33;;;;;;;13.13;7.93;;;435.60;2355.20;;;;;;5040638;28;20077;-83
2022/09/07 01:39:02;;;;;;;16.40;8.85;;;435.40;2355.20;;;;;;5039970;28;20467;-83
2022/09/07 01:41:40;;;;;;;11.50;7.68;;;435.50;2355.20;;;;;;5042659;28;20021;-83
2022/09/07 01:44:18;;;;;;;15.70;7.90;;;435.50;2355.20;;;;;;5041098;28;20075;-83
2022/09/07 01:47:01;;;;;;;12.15;8.27;;;435.20;2355.20;;;;;;5039821;28;20469;-84
2022/09/07 01:49:59;;;;;;;12.55;7.53;;;435.30;2355.20;;;;;;5046245;28;20037;-83
2022/09/07 01:52:53;;;;;;;18.10;8.57;;;435.40;2355.20;;;;;;5040176;28;20029;-83
2022/09/07 01:55:37;;;;;;;14.23;8.18;;;410.50;2355.20;;;;;;5039281;28;20021;-83
2022/09/07 01:58:18;;;;;;;10.85;7.43;;;435.30;2355.20;;;;;;5075343;28;20028;-82
2022/09/07 02:00:53;;;;;;;15.02;8.10;;;435.30;2355.20;;;;;;5042285;28;20489;-83
2022/09/07 02:03:28;;;;;;;14.20;7.95;;;435.30;2355.20;;;;;;5048208;28;20033;-83
2022/09/07 02:06:02;;;;;;;15.60;9.13;;;435.40;2355.20;;;;;;5052445;28;20082;-82
2022/09/07 02:08:35;;;;;;;11.18;8.07;;;435.40;2355.20;;;;;;5038109;28;20056;-83
2022/09/07 02:11:24;;;;;;;13.32;8.48;;;435.40;2355.20;;;;;;5052438;28;20052;-82
2022/09/07 02:14:21;;;;;;;14.55;8.38;;;435.40;2355.20;;;;;;5040692;28;20064;-83
2022/09/07 02:17:22;;;;;;;11.57;7.88;;;435.30;2355.20;;;;;;5042819;28;20022;-83
2022/09/07 02:20:02;;;;;;;13.15;7.97;;;435.40;2355.20;;;;;;5043731;28;20112;-82
2022/09/07 02:22:32;;;;;;;15.07;8.55;;;435.40;2355.20;;;;;;5042639;28;20028;-81
2022/09/07 02:25:00;;;;;;;12.57;8.38;;;435.40;2355.20;;;;;;5039673;28;20104;-81
2022/09/07 02:27:40;;;;;;;14.18;8.77;;;435.40;2355.20;;;;;;5039571;28;20025;-82
2022/09/07 02:30:07;;;;;;;12.20;8.77;;;435.50;2355.20;;;;;;5038686;28;20021;-82
2022/09/07 02:32:32;;;;;;;13.75;9.07;;;435.50;2355.20;;;;;;5048838;28;20104;-82
2022/09/07 02:34:58;;;;;;;14.98;8.70;;;435.30;2355.20;;;;;;5055403;28;20672;-82
2022/09/07 02:37:27;;;;;;;11.65;8.25;;;410.50;2355.20;;;;;;5053465;28;20043;-82
2022/09/07 02:39:53;;;;;;;14.82;8.32;;;410.20;2355.20;;;;;;5043828;28;20040;-82
2022/09/07 02:42:19;;;;;;;13.85;9.02;;;410.30;2355.20;;;;;;5047006;28;20032;-83
2022/09/07 02:44:46;;;;;;;10.82;7.70;;;410.30;2355.20;;;;;;5054668;28;20379;-82
2022/09/07 02:47:30;;;;;;;12.57;7.95;;;410.50;2355.20;;;;;;5041675;28;20026;-82
2022/09/07 02:50:27;;;;;;;13.02;8.27;;;435.20;2355.20;;;;;;5042620;28;20060;-84
2022/09/07 02:52:59;;;;;;;11.55;7.80;;;435.20;2355.20;;;;;;5049394;28;20017;-83
2022/09/07 02:55:59;;;;;;;14.70;8.65;;;410.50;2355.20;;;;;;5041551;28;20032;-83
2022/09/07 02:58:51;;;;;;;17.95;8.60;;;410.50;2355.20;;;;;;5043854;28;20037;-83
2022/09/07 03:01:43;;;;;;;11.93;8.05;;;410.50;2355.20;;;;;;5082936;28;20028;-82
2022/09/07 03:04:22;;;;;;;13.20;8.32;;;410.20;2355.20;;;;;;5046181;28;20364;-82
2022/09/07 03:06:54;;;;;;;14.90;8.23;;;409.90;2355.20;;;;;;5054425;28;20032;-83
2022/09/07 03:09:24;;;;;;;13.40;8.48;;;409.60;2355.20;;;;;;5047908;28;20029;-83
2022/09/07 03:11:51;;;;;;;13.00;7.95;;;384.90;2329.60;;;;;;5044007;28;20075;-84
2022/09/07 03:14:24;;;;;;;14.13;8.05;;;409.60;2355.20;;;;;;5045650;28;20025;-83
2022/09/07 03:16:54;;;;;;;12.35;7.68;;;409.60;2355.20;;;;;;5043286;28;20040;-82
2022/09/07 03:19:20;;;;;;;11.02;7.63;;;409.80;2355.20;;;;;;5038116;28;20029;-83
2022/09/07 03:21:46;;;;;;;13.65;7.38;;;409.90;2355.20;;;;;;5046606;28;20028;-83
2022/09/07 03:24:12;;;;;;;14.27;7.85;;;409.90;2355.20;;;;;;5047062;28;20025;-83
2022/09/07 03:26:42;;;;;;;11.00;7.35;;;409.70;2355.20;;;;;;5037894;28;20053;-82
2022/09/07 03:29:08;;;;;;;9.00;6.95;;;409.70;2355.20;;;;;;5046493;28;20029;-83
2022/09/07 03:31:35;;;;;;;9.77;6.93;;;409.70;2355.20;;;;;;5046829;28;20079;-81
2022/09/07 03:34:01;;;;;;;14.93;7.32;;;409.70;2355.20;;;;;;5060521;28;20036;-82
2022/09/07 03:36:29;;;;;;;10.20;7.30;;;409.60;2355.20;;;;;;5047841;28;20049;-84
2022/09/07 03:38:55;;;;;;;10.30;6.85;;;409.60;2355.20;;;;;;5044887;28;20037;-83
2022/09/07 03:41:20;;;;;;;10.07;6.97;;;409.60;2355.20;;;;;;5040730;28;20031;-83
2022/09/07 03:43:47;;;;;;;14.55;7.45;;;384.60;2329.60;;;;;;5037865;28;20025;-82
2022/09/07 03:46:16;;;;;;;14.52;8.65;;;384.80;2329.60;;;;;;5042675;28;20025;-83
2022/09/07 03:48:42;;;;;;;11.43;7.60;;;384.90;2329.60;;;;;;5049695;28;20470;-82
2022/09/07 03:51:10;;;;;;;9.40;6.35;;;409.70;2355.20;;;;;;5053245;28;20028;-84
2022/09/07 03:53:38;;;;;;;9.55;6.82;;;409.70;2355.20;;;;;;5050668;28;20025;-83
2022/09/07 03:56:10;;;;;;;10.20;7.72;;;409.90;2355.20;;;;;;5056622;28;20043;-84
2022/09/07 03:58:36;;;;;;;14.38;7.78;;;410.00;2355.20;;;;;;5046781;28;20030;-84
2022/09/07 04:01:10;;;;;;;15.07;7.85;;;410.10;2355.20;;;;;;5047003;28;20053;-83
2022/09/07 04:03:37;;;;;;;21.95;8.75;;;409.90;2355.20;;;;;;5047668;28;20021;-84
2022/09/07 04:06:03;;;;;;;12.48;9.00;;;384.90;2329.60;;;;;;5036358;28;20375;-84
2022/09/07 04:08:31;;;;;;;18.42;8.68;;;409.60;2355.20;;;;;;5038578;28;20037;-83
2022/09/07 04:10:59;;;;;;;17.85;8.52;;;409.60;2355.20;;;;;;5046456;28;20383;-82
2022/09/07 04:13:29;;;;;;;14.15;8.27;;;409.70;2355.20;;;;;;5041433;28;20106;-84
2022/09/07 04:15:55;;;;;;;19.15;9.25;;;409.60;2355.20;;;;;;5046518;28;20029;-84
2022/09/07 04:18:21;;;;;;;14.85;8.15;;;384.80;2329.60;;;;;;5034447;28;20025;-84
2022/09/07 04:20:49;;;;;;;18.50;8.82;;;384.80;2329.60;;;;;;5073808;28;20026;-84
2022/09/07 04:23:16;;;;;;;17.17;8.93;;;384.90;2329.60;;;;;;5040739;28;20022;-84
2022/09/07 04:25:49;;;;;;;13.23;8.27;;;384.90;2329.60;;;;;;5044004;28;20029;-84
2022/09/07 04:28:17;;;;;;;13.43;9.70;;;384.60;2329.60;;;;;;5039628;28;20095;-84
2022/09/07 04:30:43;;;;;;;14.85;8.77;;;384.60;2329.60;;;;;;5060478;28;20395;-84
2022/09/07 04:33:09;;;;;;;16.13;9.52;;;384.40;2329.60;;;;;;5044502;28;20029;-84
2022/09/07 04:35:36;;;;;;;14.23;9.38;;;384.70;2329.60;;;;;;5043660;28;20043;-84
2022/09/07 04:38:03;;;;;;;15.20;10.45;;;384.90;2329.60;;;;;;5035652;28;20030;-84
2022/09/07 04:40:29;;;;;;;19.73;9.20;;;384.80;2329.60;;;;;;5036750;28;20039;-83
2022/09/07 04:42:54;;;;;;;18.98;10.63;;;384.60;2329.60;;;;;;5043846;28;20116;-84
2022/09/07 04:45:20;;;;;;;20.55;10.38;;;384.50;2329.60;;;;;;5036876;28;20025;-84
2022/09/07 04:47:47;;;;;;;24.38;10.00;;;384.50;2329.60;;;;;;5065455;28;20030;-83
2022/09/07 04:50:15;;;;;;;25.45;11.75;;;384.80;2329.60;;;;;;5066314;28;20091;-82
2022/09/07 04:52:44;;;;;;;17.08;10.13;;;384.40;2329.60;;;;;;5076814;28;20029;-82
2022/09/07 04:55:11;;;;;;;19.92;11.25;;;384.50;2329.60;;;;;;5044145;28;20021;-82
2022/09/07 04:57:38;;;;;;;24.23;12.38;;;384.40;2329.60;;;;;;5046025;28;20113;-79
2022/09/07 05:00:09;;;;;;;21.45;11.85;;;384.40;2329.60;;;;;;5054940;28;20072;-79
2022/09/07 05:02:36;;;;;;;23.48;11.68;;;384.50;2329.60;;;;;;5048869;28;20032;-79
2022/09/07 05:05:03;;;;;;;23.10;11.10;;;384.50;2329.60;;;;;;5043979;28;20040;-83
2022/09/07 05:07:30;;;;;;;19.30;11.90;;;384.30;2329.60;;;;;;5042081;28;20025;-83
2022/09/07 05:09:56;;;;;;;23.58;13.00;;;384.50;2329.60;;;;;;5043547;28;20072;-82
2022/09/07 05:12:22;;;;;;;27.27;13.10;;;384.10;2329.60;;;;;;5036291;28;20487;-82
2022/09/07 05:14:47;;;;;;;26.40;12.70;;;384.00;2329.60;;;;;;5044431;28;20059;-82
2022/09/07 05:17:13;;;;;;;30.65;13.07;;;384.20;2329.60;;;;;;5041853;28;20483;-82
2022/09/07 05:19:39;;;;;;;26.08;13.15;;;384.30;2329.60;;;;;;5051823;28;20044;-82
2022/09/07 05:22:05;;;;;;;28.35;13.00;;;384.40;2329.60;;;;;;5043419;28;20036;-82
2022/09/07 05:24:32;;;;;;;30.40;13.82;;;384.30;2329.60;;;;;;5050876;28;20543;-81
2022/09/07 05:27:00;;;;;;;28.60;12.48;;;384.40;2329.60;;;;;;5051348;28;20067;-83
2022/09/07 05:29:26;;;;;;;19.55;11.00;;;384.60;2329.60;;;;;;5050802;28;20035;-82
2022/09/07 05:31:53;;;;;;;31.83;13.18;;;384.90;2329.60;;;;;;5054106;28;20116;-83
2022/09/07 05:34:19;;;;;;;20.33;11.27;;;384.90;2329.60;;;;;;5082259;28;20063;-84
2022/09/07 05:36:45;;;;;;;20.02;11.52;;;384.90;2329.60;;;;;;5050317;28;20441;-83
2022/09/07 05:39:11;;;;;;;21.20;11.48;;;384.60;2329.60;;;;;;5042483;28;20040;-83
2022/09/07 05:41:37;;;;;;;23.27;13.10;;;384.40;2329.60;;;;;;5044636;28;20029;-83
2022/09/07 05:44:04;;;;;;;22.40;12.40;;;384.30;2329.60;;;;;;5040599;28;20470;-83
2022/09/07 05:46:30;;;;;;;25.00;12.65;;;384.50;2329.60;;;;;;5038803;28;20060;-83
2022/09/07 05:48:56;;;;;;;23.60;11.98;;;384.90;2329.60;;;;;;5040100;28;20509;-82
2022/09/07 05:51:21;;;;;;;18.73;11.75;;;409.60;2355.20;;;;;;5039972;28;20143;-83
2022/09/07 05:53:47;;;;;;;28.60;12.60;;;409.70;2355.20;;;;;;5073418;28;20051;-83
2022/09/07 05:56:14;;;;;;;21.95;11.18;;;410.00;2355.20;;;;;;5047038;28;20029;-83
2022/09/07 05:58:40;;;;;;;22.05;13.10;;;410.20;2355.20;;;;;;5043269;28;20075;-83
2022/09/07 06:01:11;;;;;;;21.00;11.80;;;410.10;2355.20;;;;;;5039003;28;20025;-82
2022/09/07 06:03:39;;;;;;;20.92;13.30;;;410.20;2355.20;;;;;;5047291;28;20033;-83
2022/09/07 06:06:06;;;;;;;22.25;11.77;;;410.10;2355.20;;;;;;5051113;28;20036;-82
2022/09/07 06:08:34;;;;;;;18.58;11.00;;;410.20;2355.20;;;;;;5046298;28;20029;-83
2022/09/07 06:11:12;;;;;;;17.80;12.25;;;410.20;2355.20;;;;;;5050211;28;20029;-83
2022/09/07 06:13:38;;;;;;;17.45;11.15;;;410.20;2355.20;;;;;;5086288;28;20025;-83
2022/09/07 06:16:07;;;;;;;19.20;11.70;;;410.20;2355.20;;;;;;5051288;28;20057;-83
2022/09/07 06:18:35;;;;;;;21.33;11.85;;;410.30;2355.20;;;;;;5050201;28;20032;-83
2022/09/07 06:21:15;;;;;;;20.98;12.95;;;410.30;2355.20;;;;;;5050764;28;20026;-83
2022/09/07 06:23:42;;;;;;;17.13;12.15;;;410.30;2355.20;;;;;;5077052;28;20030;-82
2022/09/07 06:26:09;;;;;;;16.55;11.02;;;410.30;2355.20;;;;;;5043742;28;20032;-83
2022/09/07 06:28:40;;;;;;;18.02;10.27;;;410.50;2355.20;;;;;;5076546;28;20037;-83
2022/09/07 06:31:12;;;;;;;16.33;10.15;;;435.20;2355.20;;;;;;5075990;28;20037;-83
2022/09/07 06:33:38;;;;;;;19.80;10.27;;;435.40;2355.20;;;;;;5041669;28;20050;-83
2022/09/07 06:36:08;;;;;;;20.23;11.13;;;435.40;2355.20;;;;;;5041264;28;20282;-84
2022/09/07 06:38:38;;;;;;;16.30;10.30;;;435.50;2355.20;;;;;;5044743;28;20037;-83
2022/09/07 06:41:10;;;;;;;15.50;9.05;;;435.30;2355.20;;;;;;5040089;28;20022;-82
2022/09/07 06:43:36;;;;;;;16.52;9.38;;;435.60;2355.20;;;;;;5046398;28;20028;-82
2022/09/07 06:46:02;;;;;;;13.57;9.38;;;435.80;2355.20;;;;;;5063129;28;20029;-83
2022/09/07 06:48:28;;;;;;;20.65;9.02;;;435.70;2355.20;;;;;;5042402;28;20034;-83
2022/09/07 06:51:03;;;;;;;17.75;10.13;;;435.80;2355.20;;;;;;5045508;28;20025;-84
2022/09/07 06:53:34;;;;;;;19.13;9.63;;;436.00;2355.20;;;;;;5042508;28;20228;-83
2022/09/07 06:56:00;;;;;;;16.35;10.00;;;460.80;2380.80;;;;;;5057989;28;20032;-83
2022/09/07 06:58:27;;;;;;;13.45;8.90;;;460.80;2380.80;;;;;;5038617;28;20100;-83
2022/09/07 07:00:53;;;;;;;31.63;13.57;;;461.20;2380.80;;;;;;5058808;28;20021;-83
2022/09/07 07:03:20;;;;;;;15.50;9.80;;;461.30;2380.80;;;;;;5042845;28;20037;-83
2022/09/07 07:05:52;;;;;;;11.38;8.93;;;461.30;2380.80;;;;;;5044883;28;20029;-83
2022/09/07 07:08:19;;;;;;;16.13;8.35;;;461.40;2380.80;;;;;;5070822;28;20025;-82
2022/09/07 07:10:45;;;;;;;11.50;8.10;;;461.60;2380.80;;;;;;5042374;28;20033;-82
2022/09/07 07:13:11;;;;;;;12.02;7.75;;;461.60;2380.80;;;;;;5044616;28;20166;-82
2022/09/07 07:15:37;;;;;;;15.98;9.90;;;461.70;2380.80;;;;;;5040421;28;20534;-82
2022/09/07 07:18:03;;;;;;;14.82;8.18;;;486.40;2380.80;;;;;;5041024;28;20116;-81
2022/09/07 07:20:29;;;;;;;13.95;8.43;;;486.60;2380.80;;;;;;5072339;28;20075;-82
2022/09/07 07:22:55;;;;;;;12.43;7.13;;;486.70;2380.80;;;;;;5044513;28;20032;-81
2022/09/07 07:25:21;;;;;;;9.90;7.50;;;486.60;2380.80;;;;;;5042946;28;20025;-82
2022/09/07 07:27:47;;;;;;;14.07;8.32;;;487.00;2380.80;;;;;;5042910;28;20041;-82
2022/09/07 07:30:14;;;;;;;11.05;7.50;;;487.10;2380.80;;;;;;5044789;28;20029;-81
2022/09/07 07:32:41;;;;;;;10.73;7.72;;;487.10;2380.80;;;;;;5080394;28;20029;-83
2022/09/07 07:35:07;;;;;;;14.20;8.80;;;487.00;2380.80;;;;;;5044657;28;20034;-82
2022/09/07 07:37:35;;;;;;;13.50;8.20;;;487.20;2380.80;;;;;;5041616;28;20060;-83
2022/09/07 07:40:07;;;;;;;14.70;7.60;;;486.90;2380.80;;;;;;5042792;28;20827;-82
2022/09/07 07:42:34;;;;;;;13.02;7.93;;;487.10;2380.80;;;;;;5042537;28;20041;-83
2022/09/07 07:45:00;;;;;;;11.80;8.63;;;512.00;2380.80;;;;;;5044389;28;20037;-83
2022/09/07 07:47:27;;;;;;;12.25;7.60;;;512.10;2380.80;;;;;;5056120;28;20033;-82
2022/09/07 07:49:53;;;;;;;9.73;6.85;;;512.00;2380.80;;;;;;5056837;28;20039;-82
2022/09/07 07:52:19;;;;;;;11.25;7.97;;;512.20;2380.80;;;;;;5038365;28;20025;-82
2022/09/07 07:54:45;;;;;;;12.40;7.43;;;512.30;2380.80;;;;;;5042398;28;20039;-82
2022/09/07 07:57:11;;;;;;;10.38;7.70;;;512.50;2380.80;;;;;;5046079;28;20021;-82
2022/09/07 07:59:37;;;;;;;11.30;7.55;;;512.70;2380.80;;;;;;5076558;28;20037;-81
2022/09/07 08:02:10;;;;;;;9.63;7.82;;;537.60;2406.40;;;;;;5035592;28;20121;-81
2022/09/07 08:04:36;;;;;;;10.60;7.03;;;537.60;2406.40;;;;;;5039844;28;20047;-82
2022/09/07 08:07:12;;;;;;;11.25;7.47;;;537.60;2406.40;;;;;;5047022;28;20029;-86
2022/09/07 08:09:46;;;;;;;10.18;7.32;;;537.80;2406.40;;;;;;5073693;28;20026;-84
2022/09/07 08:12:17;;;;;;;13.50;7.63;;;537.80;2406.40;;;;;;5046676;28;20031;-84
2022/09/07 08:14:44;;;;;;;8.63;6.70;;;538.00;2406.40;;;;;;5046980;28;20087;-82
2022/09/07 08:17:11;;;;;;;11.40;7.28;;;538.20;2406.40;;;;;;5042604;28;20029;-83
2022/09/07 08:19:38;;;;;;;9.32;6.95;;;538.20;2406.40;;;;;;5052041;28;20068;-82
2022/09/07 08:22:04;;;;;;;13.02;8.77;;;538.40;2406.40;;;;;;5053018;28;20033;-83
2022/09/07 08:24:31;;;;;;;12.88;8.15;;;538.40;2406.40;;;;;;5043809;28;20021;-82
2022/09/07 08:26:57;;;;;;;11.50;6.63;;;;;;;;;;5044067;28;20490;-83
2022/09/07 08:29:23;;;;;;;10.98;7.20;;;;;;;;;;5038536;28;20033;-83
2022/09/07 08:31:49;;;;;;;11.05;6.13;;;563.80;2432.00;;;;;;5049623;28;20032;-86
2022/09/07 08:34:15;;;;;;;10.02;6.10;;;563.80;2432.00;;;;;;5041605;28;20021;-82
2022/09/07 08:36:42;;;;;;;11.70;5.95;;;563.90;2432.00;;;;;;5042492;28;20060;-81
2022/09/07 08:39:09;;;;;;;9.30;5.32;;;563.90;2432.00;;;;;;5047694;28;20036;-82
2022/09/07 08:41:49;;;;;;;8.30;5.18;;;;;;;;;;5080833;28;20036;-84
2022/09/07 08:44:22;;;;;;;12.07;5.82;;;;;;;;;;5041961;28;20043;-83
2022/09/07 08:46:50;;;;;;;10.02;5.90;;;;;;;;;;5044264;28;20044;-83
2022/09/07 08:49:28;;;;;;;7.95;5.40;;;;;;;;;;5047233;28;20456;-82
2022/09/07 08:52:02;;;;;;;9.35;5.45;;;;;;;;;;5064404;28;20047;-84
2022/09/07 08:54:33;;;;;;;7.43;5.35;;;;;;;;;;5060815;28;20024;-82
2022/09/07 08:57:05;;;;;;;7.75;4.85;;;;;;;;;;5041172;28;20025;-84
2022/09/07 08:59:31;;;;;;;13.05;5.28;;;;;;;;;;5050254;28;20475;-84
2022/09/07 09:02:02;;;;;;;8.70;4.80;;;;;;;;;;5044799;28;20021;-83
2022/09/07 09:04:44;;;;;;;7.68;4.53;;;;;;;;;;5042747;28;20072;-85
2022/09/07 09:08:04;;;;;;;6.67;4.37;;;589.70;2432.00;;;;;;5048320;28;20115;-85
2022/09/07 09:10:30;;;;;;;7.40;5.13;;;;;;;;;;5029896;28;20060;-85
2022/09/07 09:13:18;;;;;;;10.55;4.63;;;614.40;2432.00;;;;;;5040400;28;20056;-85
2022/09/07 09:16:03;;;;;;;9.43;5.65;;;614.40;2432.00;;;;;;5038951;28;20120;-85
2022/09/07 09:18:57;;;;;;;7.35;5.00;;;614.50;2432.00;;;;;;5048351;28;20039;-86
2022/09/07 09:21:25;;;;;;;12.35;5.68;;;614.50;2432.00;;;;;;5043250;28;20029;-84
2022/09/07 09:24:21;;;;;;;7.30;4.45;;;614.60;2432.00;;;;;;5049228;28;20024;-86
2022/09/07 09:26:59;;;;;;;7.43;5.70;;;614.70;2432.00;;;;;;5044076;28;20061;-86
2022/09/07 09:29:28;;;;;;;5.70;4.30;;;614.80;2432.00;;;;;;5044101;28;20477;-85
2022/09/07 09:32:31;;;;;;;9.05;5.20;;;615.00;2432.00;;;;;;5040587;28;20410;-86
2022/09/07 09:35:24;;;;;;;8.55;5.07;;;615.10;2432.00;;;;;;5077656;28;20041;-85
2022/09/07 09:37:50;;;;;;;9.45;4.57;;;615.30;2432.00;;;;;;5041724;28;20084;-84
2022/09/07 09:40:22;;;;;;;7.38;4.53;;;640.00;2432.00;;;;;;5051367;28;20041;-84
2022/09/07 09:43:01;;;;;;;10.68;6.00;;;640.00;2432.00;;;;;;5045671;28;20032;-82
2022/09/07 09:45:30;;;;;;;10.32;5.65;;;640.00;2432.00;;;;;;5045891;28;20163;-83
2022/09/07 09:47:57;;;;;;;11.50;6.40;;;640.10;2432.00;;;;;;5050019;28;20663;-82
2022/09/07 09:50:33;;;;;;;8.65;6.10;;;640.70;2432.00;;;;;;5046729;28;20048;-88
2022/09/07 09:53:04;;;;;;;8.50;5.57;;;640.50;2432.00;;;;;;5049781;28;20116;-85
2022/09/07 09:55:34;;;;;;;9.60;5.15;;;640.60;2432.00;;;;;;5044119;28;20043;-86
2022/09/07 09:58:06;;;;;;;9.73;5.32;;;640.60;2432.00;;;;;;5048764;28;20025;-83
2022/09/07 10:00:34;;;;;;;8.95;4.95;;;665.60;2432.00;;;;;;5045795;28;20040;-83
2022/09/07 10:03:05;;;;;;;10.48;5.97;;;665.70;2432.00;;;;;;5046047;28;20056;-85
2022/09/07 10:05:41;;;;;;;7.15;5.32;;;666.00;2432.00;;;;;;5045979;28;20025;-84
2022/09/07 10:08:30;;;;;;;8.85;5.90;;;666.10;2432.00;;;;;;5044917;28;20022;-83
2022/09/07 10:11:07;;;;;;;19.75;13.18;;;666.30;2432.00;;;;;;5047634;28;20028;-83
2022/09/07 10:13:37;;;;;;;10.10;7.30;;;666.50;2432.00;;;;;;5052012;28;20475;-82
2022/09/07 10:16:06;;;;;;;9.38;6.22;;;691.20;2432.00;;;;;;5041297;28;20021;-82
2022/09/07 10:19:07;;;;;;;11.95;6.78;;;691.20;2432.00;;;;;;5050082;28;20044;-83
2022/09/07 10:21:33;;;;;;;8.50;5.15;;;691.40;2432.00;;;;;;5036050;28;20135;-85
2022/09/07 10:24:05;;;;;;;14.95;7.30;;;691.60;2432.00;;;;;;5040590;28;20018;-83
2022/09/07 10:26:37;;;;;;;10.43;4.78;;;691.90;2432.00;;;;;;5039192;28;20033;-83
2022/09/07 10:29:11;;;;;;;9.52;5.57;;;691.80;2406.40;;;;;;5082634;28;20521;-83
2022/09/07 10:31:51;;;;;;;7.47;4.03;;;691.90;2380.80;;;;;;5046641;28;20025;-83
2022/09/07 10:34:32;;;;;;;7.15;4.18;;;691.90;2406.40;;;;;;5041816;28;20068;-84
2022/09/07 10:37:04;;;;;;;6.88;4.65;;;716.80;2406.40;;;;;;5042201;28;20111;-84
2022/09/07 10:40:02;;;;;;;8.00;6.45;;;716.90;2329.60;;;;;;5041593;28;20067;-83
2022/09/07 10:42:32;;;;;;;11.05;5.65;;;717.20;2380.80;;;;;;5070704;28;20399;-84
2022/09/07 10:45:00;;;;;;;7.40;5.07;;;717.50;2380.80;;;;;;5046647;28;20047;-84
2022/09/07 10:47:45;;;;;;;8.25;5.22;;;717.50;2355.20;;;;;;5037102;28;20025;-84
2022/09/07 10:50:35;;;;;;;6.90;5.32;;;742.40;2329.60;;;;;;5046521;28;20115;-85
2022/09/07 10:53:12;;;;;;;9.07;6.05;;;742.60;2304.00;;;;;;5073929;28;20069;-85
2022/09/07 10:55:43;;;;;;;8.60;5.40;;;742.80;2304.00;;;;;;5050102;28;20075;-84
2022/09/07 10:58:35;;;;;;;9.65;6.50;;;742.90;2252.80;;;;;;5068020;28;20026;-84
2022/09/07 11:01:15;;;;;;;7.85;5.15;;;743.00;2252.80;;;;;;5034777;28;20061;-85
2022/09/07 11:04:14;;;;;;;10.15;5.47;;;743.20;2176.00;;;;;;5044677;28;20043;-85
2022/09/07 11:06:48;;;;;;;6.88;5.32;;;743.30;2201.60;;;;;;5044770;28;20040;-84
2022/09/07 11:09:16;;;;;;;10.20;5.90;;;768.20;2176.00;;;;;;5044030;28;20160;-84
2022/09/07 11:12:08;;;;;;;9.48;4.93;;;768.40;2150.40;;;;;;5044095;28;20029;-82
2022/09/07 11:15:12;;;;;;;8.73;5.30;;;768.40;2176.00;;;;;;5041080;28;20118;-84
2022/09/07 11:18:00;;;;;;;6.43;5.05;;;768.60;2176.00;;;;;;5043767;28;20029;-84
2022/09/07 11:20:34;;;;;;;11.43;5.05;;;768.40;2099.20;;;;;;5070123;28;20029;-82
2022/09/07 11:23:17;;;;;;;9.95;5.95;;;768.90;2073.60;;;;;;5049564;28;20029;-83
2022/09/07 11:25:55;;;;;;;7.72;5.00;;;768.90;2048.00;;;;;;5048341;28;20792;-84
2022/09/07 11:28:43;;;;;;;9.55;4.85;;;793.70;2099.20;;;;;;5035957;28;20104;-84
2022/09/07 11:31:26;;;;;;;8.75;5.93;;;793.90;2124.80;;;;;;5049162;28;20033;-84
2022/09/07 11:34:23;;;;;;;7.85;4.90;;;794.00;2073.60;;;;;;5076523;28;20043;-84
2022/09/07 11:37:13;;;;;;;8.68;5.15;;;794.40;2048.00;;;;;;5053891;28;20087;-85
2022/09/07 11:39:54;;;;;;;7.40;4.85;;;794.20;2022.40;;;;;;5050779;28;20029;-86
2022/09/07 11:42:37;;;;;;;10.45;4.28;;;794.40;2048.00;;;;;;5043494;28;20133;-85
2022/09/07 11:45:34;;;;;;;13.82;4.80;;;819.20;2022.40;;;;;;5049590;28;20112;-84
2022/09/07 11:48:11;;;;;;;9.30;5.80;;;819.30;1996.80;;;;;;5039154;28;20098;-85
2022/09/07 11:50:45;;;;;;;10.20;5.80;;;819.30;1971.20;;;;;;5048305;28;20040;-86
2022/09/07 11:53:22;;;;;;;8.52;5.63;;;819.60;1996.80;;;;;;5038052;28;20029;-85
2022/09/07 11:56:11;;;;;;;7.63;4.68;;;819.70;1971.20;;;;;;5048117;28;20053;-85
2022/09/07 11:58:55;;;;;;;7.85;5.30;;;819.80;1945.60;;;;;;5037165;28;20483;-85
2022/09/07 12:01:39;;;;;;;7.70;4.78;;;844.80;1996.80;;;;;;5046429;28;20391;-83
2022/09/07 12:04:28;;;;;;;7.70;4.72;;;820.10;1996.80;;;;;;5044592;28;20527;-85
2022/09/07 12:07:10;;;;;;;10.05;6.75;;;820.10;1971.20;;;;;;5045451;28;20155;-84
2022/09/07 12:09:42;;;;;;;;;;;844.80;1945.60;;;;;;5043397;28;20379;-84
2022/09/07 12:12:36;;;;;;;8.15;5.10;;;819.90;1868.80;;;;;;5044705;28;19911;-85
2022/09/07 12:15:34;;;;;;;7.15;4.72;;;819.80;1894.40;;;;;;5046238;28;20058;-85
2022/09/07 12:18:16;;;;;;;6.63;4.40;;;844.80;1920.00;;;;;;5079039;28;20021;-86
2022/09/07 12:20:45;;;;;;;;;;;819.90;1894.40;;;;;;5049340;28;20036;-85
2022/09/07 12:23:14;;;;;;;7.20;4.93;;;819.80;1868.80;;;;;;5046374;28;19905;-86
2022/09/07 12:25:41;;;;;;;7.90;4.60;;;819.90;1868.80;;;;;;5047447;28;20029;-85
2022/09/07 12:28:22;;;;;;;7.15;4.30;;;820.00;1868.80;;;;;;5048063;28;20056;-84
2022/09/07 12:31:10;;;;;;;9.27;4.27;;;844.80;1920.00;;;;;;5046999;28;20069;-85
2022/09/07 12:33:39;;;;;;;7.65;4.85;;;845.00;1868.80;;;;;;5049543;28;20040;-85
2022/09/07 12:36:27;;;;;;;5.57;4.43;;;845.20;1894.40;;;;;;5040195;28;20045;-84
2022/09/07 12:39:19;;;;;;;6.65;4.40;;;845.50;1868.80;;;;;;5050226;28;20029;-86
2022/09/07 12:41:49;;;;;;;;;;;845.20;1843.20;;;;;;5042091;28;20394;-84
2022/09/07 12:44:18;;;;;;;7.68;5.00;;;845.10;1817.60;;;;;;5046492;28;20363;-84